createdAt,value
2023-04-25T00:01:23.623Z,75.70
2023-04-25T00:03:51.756Z,76.90
2023-04-25T00:06:19.359Z,77.80
2023-04-25T00:08:46.415Z,79.10
2023-04-25T00:11:13.457Z,78.90
2023-04-25T00:13:42.770Z,79.70
2023-04-25T00:16:09.979Z,79.30
2023-04-25T00:18:37.395Z,80.80
2023-04-25T00:21:07.404Z,80.20
2023-04-25T00:23:36.588Z,80.10
2023-04-25T00:26:03.943Z,80.00
2023-04-25T00:28:30.993Z,81.90
2023-04-25T00:30:58.107Z,82.60
2023-04-25T00:33:25.240Z,83.40
2023-04-25T00:35:52.282Z,84.20
2023-04-25T00:38:19.275Z,84.10
2023-04-25T00:40:46.360Z,84.90
2023-04-25T00:43:13.363Z,86.10
2023-04-25T00:45:41.003Z,86.10
2023-04-25T00:48:08.265Z,85.20
2023-04-25T00:50:35.764Z,84.70
2023-04-25T00:53:04.307Z,83.90
2023-04-25T00:55:32.557Z,84.90
2023-04-25T00:57:59.716Z,85.20
2023-04-25T01:00:26.893Z,83.50
2023-04-25T01:02:54.403Z,82.90
2023-04-25T01:05:22.051Z,81.60
2023-04-25T01:07:49.195Z,81.10
2023-04-25T01:10:16.208Z,79.10
2023-04-25T01:12:43.461Z,79.10
2023-04-25T01:15:11.491Z,76.90
2023-04-25T01:17:38.920Z,76.70
2023-04-25T01:20:06.632Z,76.30
2023-04-25T01:22:34.501Z,75.40
2023-04-25T01:25:01.958Z,75.40
2023-04-25T01:27:31.823Z,75.10
2023-04-25T01:29:59.122Z,74.70
2023-04-25T01:32:27.231Z,76.30
2023-04-25T01:34:56.572Z,76.40
2023-04-25T01:37:23.725Z,75.20
2023-04-25T01:39:51.246Z,73.80
2023-04-25T01:42:18.289Z,73.00
2023-04-25T01:44:45.711Z,73.80
2023-04-25T01:47:12.748Z,74.50
2023-04-25T01:49:39.785Z,74.20
2023-04-25T01:52:06.844Z,74.40
2023-04-25T01:54:34.013Z,73.90
2023-04-25T01:57:01.634Z,74.40
2023-04-25T01:59:29.777Z,75.00
2023-04-25T02:02:09.402Z,75.90
2023-04-25T02:04:37.495Z,74.40
2023-04-25T02:07:05.144Z,74.70
2023-04-25T02:09:46.905Z,75.10
2023-04-25T02:12:14.184Z,74.20
2023-04-25T02:15:11.855Z,74.10
2023-04-25T02:17:46.279Z,74.50
2023-04-25T02:20:14.349Z,75.30
2023-04-25T02:22:41.550Z,76.00
2023-04-25T02:25:10.160Z,76.50
2023-04-25T02:27:37.215Z,76.60
2023-04-25T02:30:05.901Z,76.60
2023-04-25T02:32:35.392Z,76.90
2023-04-25T02:35:06.629Z,77.10
2023-04-25T02:37:38.481Z,77.10
2023-04-25T02:40:06.187Z,76.50
2023-04-25T02:42:33.964Z,76.50
2023-04-25T02:45:01.489Z,77.50
2023-04-25T02:47:28.793Z,77.20
2023-04-25T02:49:57.552Z,78.40
2023-04-25T02:52:24.657Z,80.10
2023-04-25T02:54:59.784Z,80.50
2023-04-25T02:57:28.368Z,81.90
2023-04-25T02:59:55.566Z,82.10
2023-04-25T03:02:23.747Z,82.50
2023-04-25T03:04:51.121Z,82.50
2023-04-25T03:07:18.203Z,82.60
2023-04-25T03:09:45.358Z,82.50
2023-04-25T03:12:13.319Z,82.50
2023-04-25T03:14:40.379Z,82.50
2023-04-25T03:17:07.417Z,82.50
2023-04-25T03:19:36.424Z,82.50
2023-04-25T03:22:03.450Z,82.50
2023-04-25T03:24:30.512Z,83.30
2023-04-25T03:26:57.610Z,83.40
2023-04-25T03:29:27.496Z,82.50
2023-04-25T03:31:56.147Z,81.90
2023-04-25T03:34:23.339Z,82.50
2023-04-25T03:36:50.487Z,82.50
2023-04-25T03:39:17.814Z,82.50
2023-04-25T03:41:49.005Z,82.50
2023-04-25T03:44:18.534Z,82.50
2023-04-25T03:46:45.732Z,82.20
2023-04-25T03:49:13.330Z,82.20
2023-04-25T03:51:55.250Z,82.50
2023-04-25T03:54:23.772Z,81.40
2023-04-25T03:56:57.190Z,81.10
2023-04-25T03:59:27.889Z,80.00
2023-04-25T04:01:56.050Z,80.00
2023-04-25T04:04:23.766Z,79.20
2023-04-25T04:06:51.910Z,79.50
2023-04-25T04:09:24.889Z,79.10
2023-04-25T04:11:52.100Z,78.80
2023-04-25T04:14:19.079Z,77.90
2023-04-25T04:16:47.997Z,76.00
2023-04-25T04:19:15.272Z,75.80
2023-04-25T04:21:47.732Z,75.80
2023-04-25T04:24:16.310Z,75.10
2023-04-25T04:26:51.779Z,72.20
2023-04-25T04:29:38.970Z,69.40
2023-04-25T04:32:16.471Z,67.50
2023-04-25T04:34:43.619Z,66.20
2023-04-25T04:37:14.113Z,63.50
2023-04-25T04:39:42.423Z,59.70
2023-04-25T04:42:29.203Z,56.40
2023-04-25T04:45:05.703Z,46.70
2023-04-25T04:47:58.430Z,46.70
2023-04-25T04:50:40.016Z,45.30
2023-04-25T04:53:27.992Z,46.70
2023-04-25T04:56:09.572Z,45.40
2023-04-25T04:58:54.544Z,41.70
2023-04-25T05:01:44.122Z,41.30
2023-04-25T05:04:41.796Z,43.70
2023-04-25T05:07:29.136Z,40.40
2023-04-25T05:10:20.495Z,40.00
2023-04-25T05:13:06.263Z,40.50
2023-04-25T05:15:52.530Z,43.30
2023-04-25T05:18:42.913Z,43.90
2023-04-25T05:21:28.448Z,45.40
2023-04-25T05:24:15.709Z,46.70
2023-04-25T05:27:01.291Z,47.50
2023-04-25T05:29:48.311Z,46.80
2023-04-25T05:32:26.559Z,48.10
2023-04-25T05:34:54.244Z,49.80
2023-04-25T05:37:27.682Z,50.20
2023-04-25T05:40:07.784Z,49.40
2023-04-25T05:42:53.546Z,50.70
2023-04-25T05:45:30.349Z,51.90
2023-04-25T05:48:29.529Z,51.70
2023-04-25T05:51:01.328Z,53.40
2023-04-25T05:53:49.306Z,51.90
2023-04-25T05:56:16.649Z,51.50
2023-04-25T05:58:43.742Z,52.10
2023-04-25T06:01:13.657Z,52.60
2023-04-25T06:03:44.142Z,52.30
2023-04-25T06:06:12.453Z,51.80
2023-04-25T06:08:39.571Z,52.00
2023-04-25T06:11:07.090Z,51.80
2023-04-25T06:13:34.377Z,51.80
2023-04-25T06:16:01.682Z,52.40
2023-04-25T06:18:29.397Z,52.40
2023-04-25T06:20:56.469Z,52.20
2023-04-25T06:23:24.446Z,52.00
2023-04-25T06:26:03.613Z,51.40
2023-04-25T06:28:32.121Z,50.90
2023-04-25T06:31:00.001Z,50.40
2023-04-25T06:33:27.928Z,51.20
2023-04-25T06:35:56.136Z,51.40
2023-04-25T06:38:27.258Z,52.20
2023-04-25T06:40:57.056Z,53.20
2023-04-25T06:43:24.094Z,50.90
2023-04-25T06:45:51.093Z,50.10
2023-04-25T06:48:20.349Z,48.10
2023-04-25T06:50:47.398Z,47.70
2023-04-25T06:53:15.059Z,47.10
2023-04-25T06:55:44.797Z,48.60
2023-04-25T06:58:23.363Z,50.00
2023-04-25T07:00:57.895Z,46.80
2023-04-25T07:03:27.055Z,47.20
2023-04-25T07:05:59.433Z,46.30
2023-04-25T07:08:26.584Z,45.70
2023-04-25T07:10:53.642Z,44.50
2023-04-25T07:13:22.026Z,43.50
2023-04-25T07:15:49.690Z,40.40
2023-04-25T07:18:18.569Z,42.40
2023-04-25T07:20:45.721Z,43.80
2023-04-25T07:23:13.399Z,44.50
2023-04-25T07:25:40.848Z,45.00
2023-04-25T07:28:10.053Z,44.70
2023-04-25T07:30:37.813Z,41.10
2023-04-25T07:33:05.087Z,40.20
2023-04-25T07:35:32.458Z,39.20
2023-04-25T07:38:00.256Z,39.80
2023-04-25T07:40:27.546Z,39.20
2023-04-25T07:43:01.245Z,38.50
2023-04-25T07:45:35.418Z,39.50
2023-04-25T07:48:05.313Z,39.40
2023-04-25T07:50:35.887Z,39.50
2023-04-25T07:53:03.167Z,40.50
2023-04-25T07:55:37.781Z,37.90
2023-04-25T07:58:22.172Z,37.80
2023-04-25T08:00:55.430Z,37.10
2023-04-25T08:03:43.051Z,33.90
2023-04-25T08:06:19.535Z,34.90
2023-04-25T08:09:04.052Z,36.20
2023-04-25T08:11:38.269Z,32.00
2023-04-25T08:14:06.694Z,32.40
2023-04-25T08:16:34.687Z,31.80
2023-04-25T08:19:02.715Z,32.10
2023-04-25T08:21:31.406Z,31.70
2023-04-25T08:24:04.354Z,29.10
2023-04-25T08:26:35.703Z,29.50
2023-04-25T08:29:02.911Z,30.20
2023-04-25T08:31:30.431Z,29.10
2023-04-25T08:34:01.814Z,28.50
2023-04-25T08:36:40.541Z,27.30
2023-04-25T08:39:21.955Z,28.00
2023-04-25T08:42:13.741Z,27.60
2023-04-25T08:44:41.149Z,27.60
2023-04-25T08:47:08.392Z,28.20
2023-04-25T08:49:47.725Z,28.00
2023-04-25T08:52:20.962Z,28.10
2023-04-25T08:54:50.296Z,28.10
2023-04-25T08:57:19.313Z,26.40
2023-04-25T08:59:48.844Z,18.30
2023-04-25T09:02:19.100Z,17.30
2023-04-25T09:04:50.728Z,17.20
2023-04-25T09:07:22.189Z,17.00
2023-04-25T09:09:49.397Z,14.30
2023-04-25T09:12:21.838Z,14.60
2023-04-25T09:15:10.749Z,16.70
2023-04-25T09:17:57.338Z,12.70
2023-04-25T09:20:27.333Z,14.10
2023-04-25T09:23:03.828Z,13.00
2023-04-25T09:25:44.385Z,10.80
2023-04-25T09:28:12.951Z,11.30
2023-04-25T09:30:40.396Z,13.40
2023-04-25T09:33:21.577Z,5.70
2023-04-25T09:35:57.218Z,4.10
2023-04-25T09:38:41.449Z,7.40
2023-04-25T09:41:14.064Z,4.20
2023-04-25T09:43:50.294Z,7.20
2023-04-25T09:46:18.466Z,4.60
2023-04-25T09:48:55.252Z,8.00
2023-04-25T09:51:36.298Z,7.50
2023-04-25T09:54:07.500Z,4.60
2023-04-25T09:56:42.702Z,2.80
2023-04-25T09:59:13.692Z,1.40
2023-04-25T10:01:42.591Z,1.00
2023-04-25T10:04:22.397Z,2.70
2023-04-25T10:07:06.854Z,5.90
2023-04-25T10:09:35.796Z,6.00
2023-04-25T10:12:04.458Z,8.00
2023-04-25T10:14:32.561Z,7.40
2023-04-25T10:17:02.365Z,5.30
2023-04-25T10:19:30.647Z,5.90
2023-04-25T10:22:06.009Z,6.30
2023-04-25T10:24:33.451Z,7.20
2023-04-25T10:27:01.530Z,7.20
2023-04-25T10:29:29.236Z,3.10
2023-04-25T10:31:56.521Z,6.10
2023-04-25T10:34:42.488Z,5.50
2023-04-25T10:37:13.193Z,6.00
2023-04-25T10:39:43.963Z,5.60
2023-04-25T10:42:11.098Z,6.00
2023-04-25T10:44:39.316Z,2.40
2023-04-25T10:47:10.939Z,1.30
2023-04-25T10:49:43.264Z,1.00
2023-04-25T10:52:30.811Z,1.00
2023-04-25T10:54:59.197Z,1.00
2023-04-25T10:57:38.337Z,10.60
2023-04-25T11:00:17.044Z,18.90
2023-04-25T11:02:55.649Z,26.80
2023-04-25T11:05:57.372Z,28.80
2023-04-25T11:08:35.082Z,21.50
2023-04-25T11:11:03.171Z,23.50
2023-04-25T11:13:31.641Z,26.30
2023-04-25T11:16:07.284Z,23.70
2023-04-25T11:18:42.629Z,25.30
2023-04-25T11:21:14.427Z,21.10
2023-04-25T11:23:41.709Z,18.10
2023-04-25T11:26:08.940Z,18.10
2023-04-25T11:28:35.978Z,16.90
2023-04-25T11:31:05.457Z,14.20
2023-04-25T11:33:32.578Z,11.40
2023-04-25T11:35:59.927Z,8.20
2023-04-25T11:38:28.049Z,8.30
2023-04-25T11:40:56.742Z,8.30
2023-04-25T11:43:24.101Z,11.10
2023-04-25T11:45:52.209Z,6.60
2023-04-25T11:48:26.307Z,7.40
2023-04-25T11:50:56.195Z,6.40
2023-04-25T11:53:25.063Z,6.40
2023-04-25T11:55:52.174Z,5.80
2023-04-25T11:58:20.660Z,6.80
2023-04-25T12:00:50.555Z,7.00
2023-04-25T12:03:20.073Z,7.20
2023-04-25T12:05:49.016Z,6.60
2023-04-25T12:08:17.555Z,8.10
2023-04-25T12:10:47.099Z,9.20
2023-04-25T12:13:40.443Z,8.30
2023-04-25T12:16:07.707Z,6.00
2023-04-25T12:18:37.158Z,4.90
2023-04-25T12:21:06.035Z,5.10
2023-04-25T12:23:33.266Z,5.20
2023-04-25T12:26:00.701Z,2.60
2023-04-25T12:28:32.835Z,2.60
2023-04-25T12:31:05.608Z,1.40
2023-04-25T12:33:37.955Z,1.00
2023-04-25T12:36:10.363Z,1.00
2023-04-25T12:38:42.055Z,1.00
2023-04-25T12:41:10.389Z,1.00
2023-04-25T12:43:37.438Z,1.00
2023-04-25T12:46:04.646Z,3.30
2023-04-25T12:48:32.325Z,1.00
2023-04-25T12:50:59.896Z,1.00
2023-04-25T12:53:27.358Z,1.00
2023-04-25T12:58:22.477Z,1.00
2023-04-25T13:00:50.238Z,2.80
2023-04-25T13:03:17.617Z,4.10
2023-04-25T13:05:44.804Z,2.80
2023-04-25T13:08:12.543Z,3.50
2023-04-25T13:10:40.422Z,3.90
2023-04-25T13:13:07.790Z,3.90
2023-04-25T13:15:34.877Z,3.50
2023-04-25T13:18:02.066Z,1.50
2023-04-25T13:20:29.342Z,1.00
2023-04-25T13:23:00.318Z,1.00
2023-04-25T13:25:28.176Z,1.00
2023-04-25T13:27:56.250Z,1.00
2023-04-25T13:30:23.368Z,1.00
2023-04-25T13:32:50.474Z,1.00
2023-04-25T13:35:18.418Z,1.00
2023-04-25T13:37:46.355Z,1.00
2023-04-25T13:40:13.550Z,1.00
2023-04-25T13:42:41.270Z,1.00
2023-04-25T13:45:08.944Z,1.00
2023-04-25T13:47:36.432Z,1.00
2023-04-25T13:50:04.646Z,1.00
2023-04-25T13:52:31.796Z,1.00
2023-04-25T13:55:01.865Z,1.00
2023-04-25T13:57:28.916Z,1.00
2023-04-25T13:59:56.070Z,1.00
2023-04-25T14:02:23.414Z,1.00
2023-04-25T14:04:50.669Z,1.00
2023-04-25T14:07:17.995Z,1.00
2023-04-25T14:09:45.484Z,1.00
2023-04-25T14:12:12.571Z,1.00
2023-04-25T14:14:39.807Z,1.00
2023-04-25T14:17:07.900Z,1.00
2023-04-25T14:19:34.982Z,1.00
2023-04-25T14:22:03.432Z,1.00
2023-04-25T14:24:30.643Z,1.00
2023-04-25T14:26:57.770Z,1.00
2023-04-25T14:29:24.748Z,1.00
2023-04-25T14:31:51.790Z,1.00
2023-04-25T14:34:18.917Z,1.00
2023-04-25T14:36:46.225Z,1.00
2023-04-25T14:39:15.184Z,1.00
2023-04-25T14:41:42.238Z,1.00
2023-04-25T14:44:09.470Z,1.00
2023-04-25T14:46:36.886Z,1.00
2023-04-25T14:49:04.835Z,1.00
2023-04-25T14:51:32.124Z,1.00
2023-04-25T14:53:59.185Z,1.00
2023-04-25T14:56:26.578Z,1.00
2023-04-25T14:58:53.741Z,1.00
2023-04-25T15:01:21.923Z,1.00
2023-04-25T15:03:49.614Z,1.00
2023-04-25T15:06:17.439Z,2.70
2023-04-25T15:08:44.357Z,3.00
2023-04-25T15:11:12.105Z,1.40
2023-04-25T15:13:39.510Z,3.00
2023-04-25T15:16:07.766Z,2.90
2023-04-25T15:18:34.863Z,4.70
2023-04-25T15:21:02.386Z,4.50
2023-04-25T15:23:29.918Z,1.10
2023-04-25T15:25:57.541Z,1.00
2023-04-25T15:28:24.612Z,1.00
2023-04-25T15:30:51.781Z,1.00
2023-04-25T15:33:18.806Z,1.00
2023-04-25T15:35:45.930Z,1.00
2023-04-25T15:38:13.255Z,1.00
2023-04-25T15:40:41.858Z,1.00
2023-04-25T15:43:15.422Z,1.00
2023-04-25T15:45:42.873Z,1.00
2023-04-25T15:48:09.908Z,1.00
2023-04-25T15:50:38.307Z,1.00
2023-04-25T15:53:07.119Z,1.00
2023-04-25T15:55:35.320Z,1.00
2023-04-25T15:58:02.563Z,1.00
2023-04-25T16:00:29.932Z,1.00
2023-04-25T16:02:57.394Z,1.00
2023-04-25T16:05:24.635Z,1.00
2023-04-25T16:07:53.886Z,1.00
2023-04-25T16:10:21.770Z,1.00
2023-04-25T16:12:50.283Z,1.00
2023-04-25T16:15:17.987Z,1.00
2023-04-25T16:17:45.152Z,1.00
2023-04-25T16:20:13.401Z,1.00
2023-04-25T16:22:42.201Z,1.00
2023-04-25T16:25:10.588Z,1.00
2023-04-25T16:27:39.572Z,1.00
2023-04-25T16:30:11.165Z,1.00
2023-04-25T16:32:42.642Z,1.00
2023-04-25T16:35:12.383Z,1.00
2023-04-25T16:37:39.654Z,1.00
2023-04-25T16:40:10.200Z,1.00
2023-04-25T16:42:37.738Z,1.00
2023-04-25T16:45:05.342Z,1.00
2023-04-25T16:47:32.462Z,1.00
2023-04-25T16:50:03.166Z,1.00
2023-04-25T16:52:30.478Z,1.00
2023-04-25T16:54:57.658Z,1.00
2023-04-25T16:57:24.686Z,1.00
2023-04-25T16:59:52.068Z,1.00
2023-04-25T17:02:19.255Z,1.00
2023-04-25T17:04:46.413Z,1.00
2023-04-25T17:07:13.449Z,1.00
2023-04-25T17:09:41.047Z,1.00
2023-04-25T17:12:08.254Z,1.00
2023-04-25T17:14:37.141Z,1.00
2023-04-25T17:17:04.479Z,1.00
2023-04-25T17:19:32.079Z,1.00
2023-04-25T17:21:59.341Z,1.00
2023-04-25T17:24:26.480Z,1.00
2023-04-25T17:26:53.622Z,1.00
2023-04-25T17:29:23.651Z,1.00
2023-04-25T17:31:50.932Z,1.00
2023-04-25T17:34:18.096Z,1.00
2023-04-25T17:36:51.196Z,1.00
2023-04-25T17:39:18.394Z,1.00
2023-04-25T17:41:46.046Z,1.00
2023-04-25T17:44:13.418Z,1.00
2023-04-25T17:46:40.526Z,1.00
2023-04-25T17:49:07.825Z,1.00
2023-04-25T17:51:38.662Z,1.00
2023-04-25T17:54:08.609Z,1.00
2023-04-25T17:56:40.636Z,1.00
2023-04-25T17:59:08.447Z,1.00
2023-04-25T18:01:36.085Z,1.00
2023-04-25T18:04:04.471Z,1.00
2023-04-25T18:06:33.092Z,1.00
2023-04-25T18:09:01.889Z,1.00
2023-04-25T18:11:31.941Z,1.00
2023-04-25T18:13:59.273Z,1.00
2023-04-25T18:16:26.378Z,1.00
2023-04-25T18:18:53.794Z,1.00
2023-04-25T18:21:21.736Z,1.00
2023-04-25T18:23:50.066Z,1.00
2023-04-25T18:26:17.385Z,1.00
2023-04-25T18:28:45.054Z,1.00
2023-04-25T18:31:12.258Z,1.00
2023-04-25T18:33:40.356Z,1.00
2023-04-25T18:36:58.335Z,1.00
2023-04-25T18:39:26.402Z,1.00
2023-04-25T18:42:01.460Z,1.00
2023-04-25T18:44:36.626Z,1.00
2023-04-25T18:47:06.057Z,1.00
2023-04-25T18:49:33.799Z,1.00
2023-04-25T18:52:03.739Z,1.00
2023-04-25T18:54:33.575Z,1.10
2023-04-25T18:57:02.574Z,1.50
2023-04-25T18:59:29.973Z,1.40
2023-04-25T19:01:57.266Z,2.20
2023-04-25T19:04:24.568Z,2.70
2023-04-25T19:06:52.318Z,3.30
2023-04-25T19:09:19.603Z,4.90
2023-04-25T19:11:47.912Z,5.20
2023-04-25T19:14:15.569Z,5.30
2023-04-25T19:16:42.832Z,6.60
2023-04-25T19:19:11.762Z,6.80
2023-04-25T19:21:46.312Z,7.60
2023-04-25T19:24:13.563Z,7.80
2023-04-25T19:26:41.043Z,8.10
2023-04-25T19:29:10.662Z,9.60
2023-04-25T19:31:38.935Z,10.20
2023-04-25T19:34:07.728Z,10.80
2023-04-25T19:36:37.238Z,11.30
2023-04-25T19:39:07.488Z,11.60
2023-04-25T19:41:37.064Z,12.40
2023-04-25T19:44:07.485Z,12.40
2023-04-25T19:46:37.155Z,12.50
2023-04-25T19:49:08.414Z,12.90
2023-04-25T19:51:36.452Z,12.80
2023-04-25T19:54:04.924Z,13.10
2023-04-25T19:56:33.213Z,13.30
2023-04-25T19:59:00.397Z,13.50
2023-04-25T20:01:27.806Z,14.20
2023-04-25T20:03:55.474Z,14.60
2023-04-25T20:06:24.752Z,15.40
2023-04-25T20:08:56.402Z,15.70
2023-04-25T20:11:24.460Z,15.30
2023-04-25T20:13:51.840Z,15.50
2023-04-25T20:16:21.171Z,15.90
2023-04-25T20:18:49.064Z,15.90
2023-04-25T20:21:17.128Z,16.10
2023-04-25T20:23:44.287Z,17.30
2023-04-25T20:26:14.747Z,17.30
2023-04-25T20:28:42.035Z,17.80
2023-04-25T20:31:10.780Z,18.10
2023-04-25T20:33:38.821Z,18.70
2023-04-25T20:36:06.138Z,19.10
2023-04-25T20:38:33.155Z,19.50
2023-04-25T20:41:00.576Z,18.80
2023-04-25T20:43:29.415Z,19.40
2023-04-25T20:45:57.495Z,19.60
2023-04-25T20:48:26.881Z,20.00
2023-04-25T20:50:53.997Z,20.30
2023-04-25T20:53:23.712Z,20.60
2023-04-25T20:55:50.674Z,21.00
2023-04-25T20:58:19.779Z,21.70
2023-04-25T21:00:55.452Z,23.00
2023-04-25T21:03:26.202Z,25.10
2023-04-25T21:05:54.678Z,25.30
2023-04-25T21:08:21.782Z,26.20
2023-04-25T21:10:49.095Z,26.60
2023-04-25T21:13:16.641Z,27.30
2023-04-25T21:15:43.821Z,28.60
2023-04-25T21:18:11.139Z,28.70
2023-04-25T21:20:40.263Z,28.50
2023-04-25T21:23:07.271Z,30.00
2023-04-25T21:25:35.788Z,30.20
2023-04-25T21:28:04.083Z,30.40
2023-04-25T21:30:31.438Z,31.10
2023-04-25T21:32:59.802Z,32.10
2023-04-25T21:35:27.038Z,32.60
2023-04-25T21:37:54.122Z,33.60
2023-04-25T21:40:21.284Z,33.60
2023-04-25T21:42:53.736Z,33.60
2023-04-25T21:45:22.187Z,33.20
2023-04-25T21:47:49.605Z,33.70
2023-04-25T21:50:18.063Z,34.20
2023-04-25T21:52:45.104Z,34.20
2023-04-25T21:55:12.182Z,34.30
2023-04-25T21:57:39.410Z,34.20
2023-04-25T22:00:20.204Z,34.20
2023-04-25T22:02:48.226Z,34.30
2023-04-25T22:05:15.462Z,34.20
2023-04-25T22:07:42.552Z,34.60
2023-04-25T22:10:10.271Z,35.60
2023-04-25T22:12:37.604Z,36.20
2023-04-25T22:15:05.159Z,37.40
2023-04-25T22:17:33.297Z,37.90
2023-04-25T22:20:00.738Z,38.40
2023-04-25T22:22:27.991Z,37.90
2023-04-25T22:24:55.016Z,37.50
2023-04-25T22:27:22.439Z,38.40
2023-04-25T22:29:50.515Z,39.70
2023-04-25T22:32:17.541Z,38.70
2023-04-25T22:34:44.659Z,39.20
2023-04-25T22:37:11.597Z,38.80
2023-04-25T22:39:39.406Z,39.30
2023-04-25T22:42:06.358Z,39.60
2023-04-25T22:44:34.068Z,40.00
2023-04-25T22:47:01.731Z,40.90
2023-04-25T22:49:28.850Z,41.20
2023-04-25T22:51:56.881Z,41.50
2023-04-25T22:54:24.159Z,41.90
2023-04-25T22:56:51.161Z,42.00
2023-04-25T22:59:20.753Z,41.90
2023-04-25T23:01:50.116Z,42.00
2023-04-25T23:04:18.920Z,42.80
2023-04-25T23:06:48.748Z,43.10
2023-04-25T23:09:15.959Z,43.30
2023-04-25T23:11:42.982Z,43.10
2023-04-25T23:14:10.303Z,43.10
2023-04-25T23:16:37.454Z,43.30
2023-04-25T23:19:04.485Z,44.00
2023-04-25T23:21:31.570Z,43.60
2023-04-25T23:23:58.615Z,44.00
2023-04-25T23:26:25.629Z,44.80
2023-04-25T23:28:55.265Z,44.90
2023-04-25T23:31:22.515Z,44.70
2023-04-25T23:33:49.591Z,46.00
2023-04-25T23:36:22.886Z,46.10
2023-04-25T23:38:50.712Z,47.00
2023-04-25T23:41:18.231Z,46.40
2023-04-25T23:43:45.763Z,47.40
2023-04-25T23:46:13.588Z,48.10
2023-04-25T23:48:41.381Z,48.10
2023-04-25T23:51:08.322Z,49.60
2023-04-25T23:53:35.247Z,49.00
2023-04-25T23:56:02.328Z,50.10
2023-04-25T23:58:29.381Z,49.70
